sensor_id;sensor_type;location;lat;lon;timestamp;temperature;humidity
17988;DHT22;9119;50.932;5.342;2023-05-13T00:00:14;14.60;99.90
17988;DHT22;9119;50.932;5.342;2023-05-13T00:02:40;14.60;99.90
17988;DHT22;9119;50.932;5.342;2023-05-13T00:05:06;14.70;99.90
17988;DHT22;9119;50.932;5.342;2023-05-13T00:07:32;14.70;99.90
17988;DHT22;9119;50.932;5.342;2023-05-13T00:09:58;14.70;99.90
17988;DHT22;9119;50.932;5.342;2023-05-13T00:12:23;14.70;99.90
17988;DHT22;9119;50.932;5.342;2023-05-13T00:14:49;14.70;99.90
17988;DHT22;9119;50.932;5.342;2023-05-13T00:17:15;14.70;99.90
17988;DHT22;9119;50.932;5.342;2023-05-13T00:19:41;14.70;99.90
17988;DHT22;9119;50.932;5.342;2023-05-13T00:22:07;14.70;99.90
17988;DHT22;9119;50.932;5.342;2023-05-13T00:24:32;14.60;99.90
17988;DHT22;9119;50.932;5.342;2023-05-13T00:26:58;14.70;99.90
17988;DHT22;9119;50.932;5.342;2023-05-13T00:29:24;14.90;99.90
17988;DHT22;9119;50.932;5.342;2023-05-13T00:31:49;14.70;99.90
17988;DHT22;9119;50.932;5.342;2023-05-13T00:34:16;14.70;99.90
17988;DHT22;9119;50.932;5.342;2023-05-13T00:36:43;14.80;99.90
17988;DHT22;9119;50.932;5.342;2023-05-13T00:39:09;14.80;99.90
17988;DHT22;9119;50.932;5.342;2023-05-13T00:41:36;14.90;99.90
17988;DHT22;9119;50.932;5.342;2023-05-13T00:44:02;15.00;99.90
17988;DHT22;9119;50.932;5.342;2023-05-13T00:46:31;14.90;99.90
17988;DHT22;9119;50.932;5.342;2023-05-13T00:48:58;14.80;99.90
17988;DHT22;9119;50.932;5.342;2023-05-13T00:51:24;14.80;99.90
17988;DHT22;9119;50.932;5.342;2023-05-13T00:53:51;14.80;99.90
17988;DHT22;9119;50.932;5.342;2023-05-13T00:56:20;14.80;99.90
17988;DHT22;9119;50.932;5.342;2023-05-13T00:58:46;14.80;99.90
17988;DHT22;9119;50.932;5.342;2023-05-13T01:01:47;14.80;99.90
17988;DHT22;9119;50.932;5.342;2023-05-13T01:12:35;14.60;99.90
17988;DHT22;9119;50.932;5.342;2023-05-13T01:15:07;14.60;99.90
17988;DHT22;9119;50.932;5.342;2023-05-13T01:18:05;14.70;99.90
17988;DHT22;9119;50.932;5.342;2023-05-13T01:20:32;14.80;99.90
17988;DHT22;9119;50.932;5.342;2023-05-13T01:22:59;15.00;99.90
17988;DHT22;9119;50.932;5.342;2023-05-13T01:25:24;15.00;99.90
17988;DHT22;9119;50.932;5.342;2023-05-13T01:27:51;14.90;99.90
17988;DHT22;9119;50.932;5.342;2023-05-13T01:30:17;14.80;99.90
17988;DHT22;9119;50.932;5.342;2023-05-13T01:32:43;14.70;99.90
17988;DHT22;9119;50.932;5.342;2023-05-13T01:35:10;14.80;99.90
17988;DHT22;9119;50.932;5.342;2023-05-13T01:37:36;14.90;99.90
17988;DHT22;9119;50.932;5.342;2023-05-13T01:40:04;14.90;99.90
17988;DHT22;9119;50.932;5.342;2023-05-13T01:42:32;14.90;99.90
17988;DHT22;9119;50.932;5.342;2023-05-13T01:44:58;14.80;99.90
17988;DHT22;9119;50.932;5.342;2023-05-13T01:47:24;14.80;99.90
17988;DHT22;9119;50.932;5.342;2023-05-13T01:49:50;14.80;99.90
17988;DHT22;9119;50.932;5.342;2023-05-13T01:52:15;14.80;99.90
17988;DHT22;9119;50.932;5.342;2023-05-13T01:54:41;14.70;99.90
17988;DHT22;9119;50.932;5.342;2023-05-13T01:57:07;14.60;99.90
17988;DHT22;9119;50.932;5.342;2023-05-13T01:59:32;14.60;99.90
17988;DHT22;9119;50.932;5.342;2023-05-13T02:01:58;14.60;99.90
17988;DHT22;9119;50.932;5.342;2023-05-13T02:04:24;14.50;99.90
17988;DHT22;9119;50.932;5.342;2023-05-13T02:06:50;14.50;99.90
17988;DHT22;9119;50.932;5.342;2023-05-13T02:09:15;14.40;99.90
17988;DHT22;9119;50.932;5.342;2023-05-13T02:11:41;14.20;99.90
17988;DHT22;9119;50.932;5.342;2023-05-13T02:14:07;14.20;99.90
17988;DHT22;9119;50.932;5.342;2023-05-13T02:16:33;14.20;99.90
17988;DHT22;9119;50.932;5.342;2023-05-13T02:18:58;14.20;99.90
17988;DHT22;9119;50.932;5.342;2023-05-13T02:21:24;14.10;99.90
17988;DHT22;9119;50.932;5.342;2023-05-13T02:23:50;14.10;99.90
17988;DHT22;9119;50.932;5.342;2023-05-13T02:26:16;14.10;99.90
17988;DHT22;9119;50.932;5.342;2023-05-13T02:28:42;14.20;99.90
17988;DHT22;9119;50.932;5.342;2023-05-13T02:31:08;14.10;99.90
17988;DHT22;9119;50.932;5.342;2023-05-13T02:33:33;14.10;99.90
17988;DHT22;9119;50.932;5.342;2023-05-13T02:35:59;14.00;99.90
17988;DHT22;9119;50.932;5.342;2023-05-13T02:38:25;13.90;99.90
17988;DHT22;9119;50.932;5.342;2023-05-13T02:40:50;13.80;99.90
17988;DHT22;9119;50.932;5.342;2023-05-13T02:43:16;13.80;99.90
17988;DHT22;9119;50.932;5.342;2023-05-13T02:45:43;13.80;99.90
17988;DHT22;9119;50.932;5.342;2023-05-13T02:48:08;13.80;99.90
17988;DHT22;9119;50.932;5.342;2023-05-13T02:50:35;13.90;99.90
17988;DHT22;9119;50.932;5.342;2023-05-13T02:53:01;13.90;99.90
17988;DHT22;9119;50.932;5.342;2023-05-13T02:55:27;13.80;99.90
17988;DHT22;9119;50.932;5.342;2023-05-13T02:57:52;13.80;99.90
17988;DHT22;9119;50.932;5.342;2023-05-13T03:00:18;13.80;99.90
17988;DHT22;9119;50.932;5.342;2023-05-13T03:02:44;13.70;99.90
17988;DHT22;9119;50.932;5.342;2023-05-13T03:05:09;13.70;99.90
17988;DHT22;9119;50.932;5.342;2023-05-13T03:07:35;13.60;99.90
17988;DHT22;9119;50.932;5.342;2023-05-13T03:10:01;13.60;99.90
17988;DHT22;9119;50.932;5.342;2023-05-13T03:12:26;13.60;99.90
17988;DHT22;9119;50.932;5.342;2023-05-13T03:14:52;13.50;99.90
17988;DHT22;9119;50.932;5.342;2023-05-13T03:17:18;13.40;99.90
17988;DHT22;9119;50.932;5.342;2023-05-13T03:19:43;13.40;99.90
17988;DHT22;9119;50.932;5.342;2023-05-13T03:22:09;13.30;99.90
17988;DHT22;9119;50.932;5.342;2023-05-13T03:24:35;13.30;99.90
17988;DHT22;9119;50.932;5.342;2023-05-13T03:27:00;13.30;99.90
17988;DHT22;9119;50.932;5.342;2023-05-13T03:29:26;13.30;99.90
17988;DHT22;9119;50.932;5.342;2023-05-13T03:31:52;13.30;99.90
17988;DHT22;9119;50.932;5.342;2023-05-13T03:34:18;13.40;99.90
17988;DHT22;9119;50.932;5.342;2023-05-13T03:36:43;13.30;99.90
17988;DHT22;9119;50.932;5.342;2023-05-13T03:39:09;13.40;99.90
17988;DHT22;9119;50.932;5.342;2023-05-13T03:41:35;13.30;99.90
17988;DHT22;9119;50.932;5.342;2023-05-13T03:44:01;13.20;99.90
17988;DHT22;9119;50.932;5.342;2023-05-13T03:46:27;13.20;99.90
17988;DHT22;9119;50.932;5.342;2023-05-13T03:48:53;13.20;99.90
17988;DHT22;9119;50.932;5.342;2023-05-13T03:51:23;13.20;99.90
17988;DHT22;9119;50.932;5.342;2023-05-13T03:53:48;13.20;99.90
17988;DHT22;9119;50.932;5.342;2023-05-13T03:56:14;13.30;99.90
17988;DHT22;9119;50.932;5.342;2023-05-13T03:58:40;13.30;99.90
17988;DHT22;9119;50.932;5.342;2023-05-13T04:01:06;13.30;99.90
17988;DHT22;9119;50.932;5.342;2023-05-13T04:03:33;13.20;99.90
17988;DHT22;9119;50.932;5.342;2023-05-13T04:05:59;13.20;99.90
17988;DHT22;9119;50.932;5.342;2023-05-13T04:08:25;13.20;99.90
17988;DHT22;9119;50.932;5.342;2023-05-13T04:10:51;13.10;99.90
17988;DHT22;9119;50.932;5.342;2023-05-13T04:13:17;13.10;99.90
17988;DHT22;9119;50.932;5.342;2023-05-13T04:15:42;13.00;99.90
17988;DHT22;9119;50.932;5.342;2023-05-13T04:18:08;12.90;99.90
17988;DHT22;9119;50.932;5.342;2023-05-13T04:20:37;12.90;99.90
17988;DHT22;9119;50.932;5.342;2023-05-13T04:23:04;12.90;99.90
17988;DHT22;9119;50.932;5.342;2023-05-13T04:25:29;12.80;99.90
17988;DHT22;9119;50.932;5.342;2023-05-13T04:27:56;12.80;99.90
17988;DHT22;9119;50.932;5.342;2023-05-13T04:30:21;12.80;99.90
17988;DHT22;9119;50.932;5.342;2023-05-13T04:32:47;12.80;99.90
17988;DHT22;9119;50.932;5.342;2023-05-13T04:35:13;12.80;99.90
17988;DHT22;9119;50.932;5.342;2023-05-13T04:37:38;12.70;99.90
17988;DHT22;9119;50.932;5.342;2023-05-13T04:40:05;12.70;99.90
17988;DHT22;9119;50.932;5.342;2023-05-13T04:42:31;12.70;99.90
17988;DHT22;9119;50.932;5.342;2023-05-13T04:44:57;12.80;99.90
17988;DHT22;9119;50.932;5.342;2023-05-13T04:47:23;12.80;99.90
17988;DHT22;9119;50.932;5.342;2023-05-13T04:49:48;12.90;99.90
17988;DHT22;9119;50.932;5.342;2023-05-13T04:52:14;12.90;99.90
17988;DHT22;9119;50.932;5.342;2023-05-13T04:54:40;12.90;99.90
17988;DHT22;9119;50.932;5.342;2023-05-13T04:57:06;13.00;99.90
17988;DHT22;9119;50.932;5.342;2023-05-13T04:59:32;13.00;99.90
17988;DHT22;9119;50.932;5.342;2023-05-13T05:01:59;13.00;99.90
17988;DHT22;9119;50.932;5.342;2023-05-13T05:04:25;13.00;99.90
17988;DHT22;9119;50.932;5.342;2023-05-13T05:06:51;13.10;99.90
17988;DHT22;9119;50.932;5.342;2023-05-13T05:09:17;13.10;99.90
17988;DHT22;9119;50.932;5.342;2023-05-13T05:11:43;13.10;99.90
17988;DHT22;9119;50.932;5.342;2023-05-13T05:14:09;13.10;99.90
17988;DHT22;9119;50.932;5.342;2023-05-13T05:16:34;13.20;99.90
17988;DHT22;9119;50.932;5.342;2023-05-13T05:19:00;13.20;99.90
17988;DHT22;9119;50.932;5.342;2023-05-13T05:21:26;13.20;99.90
17988;DHT22;9119;50.932;5.342;2023-05-13T05:23:51;13.20;99.90
17988;DHT22;9119;50.932;5.342;2023-05-13T05:26:18;13.10;99.90
17988;DHT22;9119;50.932;5.342;2023-05-13T05:28:44;12.90;99.90
17988;DHT22;9119;50.932;5.342;2023-05-13T05:31:10;13.00;99.90
17988;DHT22;9119;50.932;5.342;2023-05-13T05:33:36;13.00;99.90
17988;DHT22;9119;50.932;5.342;2023-05-13T05:36:02;13.00;99.90
17988;DHT22;9119;50.932;5.342;2023-05-13T05:38:28;13.10;99.90
17988;DHT22;9119;50.932;5.342;2023-05-13T05:40:54;13.10;99.90
17988;DHT22;9119;50.932;5.342;2023-05-13T05:43:20;13.00;99.90
17988;DHT22;9119;50.932;5.342;2023-05-13T05:45:45;13.00;99.90
17988;DHT22;9119;50.932;5.342;2023-05-13T05:48:11;13.00;99.90
17988;DHT22;9119;50.932;5.342;2023-05-13T05:50:37;13.00;99.90
17988;DHT22;9119;50.932;5.342;2023-05-13T05:53:03;13.10;99.90
17988;DHT22;9119;50.932;5.342;2023-05-13T05:55:29;13.20;99.90
17988;DHT22;9119;50.932;5.342;2023-05-13T05:57:56;13.30;99.90
17988;DHT22;9119;50.932;5.342;2023-05-13T06:00:23;13.20;99.90
17988;DHT22;9119;50.932;5.342;2023-05-13T06:02:49;13.40;99.90
17988;DHT22;9119;50.932;5.342;2023-05-13T06:05:15;13.80;99.90
17988;DHT22;9119;50.932;5.342;2023-05-13T06:07:41;13.70;99.90
17988;DHT22;9119;50.932;5.342;2023-05-13T06:10:07;13.90;99.90
17988;DHT22;9119;50.932;5.342;2023-05-13T06:12:33;13.80;99.90
17988;DHT22;9119;50.932;5.342;2023-05-13T06:15:00;13.70;99.90
17988;DHT22;9119;50.932;5.342;2023-05-13T06:17:25;13.60;99.90
17988;DHT22;9119;50.932;5.342;2023-05-13T06:19:51;13.60;99.90
17988;DHT22;9119;50.932;5.342;2023-05-13T06:22:17;13.70;99.90
17988;DHT22;9119;50.932;5.342;2023-05-13T06:24:42;13.70;99.90
17988;DHT22;9119;50.932;5.342;2023-05-13T06:27:12;13.80;99.90
17988;DHT22;9119;50.932;5.342;2023-05-13T06:29:38;13.90;99.90
17988;DHT22;9119;50.932;5.342;2023-05-13T06:32:04;14.00;99.90
17988;DHT22;9119;50.932;5.342;2023-05-13T06:34:30;14.10;99.90
17988;DHT22;9119;50.932;5.342;2023-05-13T06:36:56;14.30;99.90
17988;DHT22;9119;50.932;5.342;2023-05-13T06:39:22;14.40;99.90
17988;DHT22;9119;50.932;5.342;2023-05-13T06:41:48;14.50;99.90
17988;DHT22;9119;50.932;5.342;2023-05-13T06:44:13;14.60;99.90
17988;DHT22;9119;50.932;5.342;2023-05-13T06:46:40;14.70;99.90
17988;DHT22;9119;50.932;5.342;2023-05-13T06:49:05;14.80;99.90
17988;DHT22;9119;50.932;5.342;2023-05-13T06:51:31;15.10;99.90
17988;DHT22;9119;50.932;5.342;2023-05-13T06:53:58;15.30;99.90
17988;DHT22;9119;50.932;5.342;2023-05-13T06:56:24;15.20;99.90
17988;DHT22;9119;50.932;5.342;2023-05-13T06:58:50;15.10;99.90
17988;DHT22;9119;50.932;5.342;2023-05-13T07:01:17;15.10;99.90
17988;DHT22;9119;50.932;5.342;2023-05-13T07:03:43;15.50;99.90
17988;DHT22;9119;50.932;5.342;2023-05-13T07:06:09;15.60;99.90
17988;DHT22;9119;50.932;5.342;2023-05-13T07:08:35;15.60;99.90
17988;DHT22;9119;50.932;5.342;2023-05-13T07:11:00;15.70;99.90
17988;DHT22;9119;50.932;5.342;2023-05-13T07:13:26;15.70;99.90
17988;DHT22;9119;50.932;5.342;2023-05-13T07:15:53;15.80;99.90
17988;DHT22;9119;50.932;5.342;2023-05-13T07:18:19;15.90;99.90
17988;DHT22;9119;50.932;5.342;2023-05-13T07:20:45;16.00;99.90
17988;DHT22;9119;50.932;5.342;2023-05-13T07:23:10;16.20;99.90
17988;DHT22;9119;50.932;5.342;2023-05-13T07:25:36;16.10;99.90
17988;DHT22;9119;50.932;5.342;2023-05-13T07:28:02;16.10;99.90
17988;DHT22;9119;50.932;5.342;2023-05-13T07:30:28;16.30;99.90
17988;DHT22;9119;50.932;5.342;2023-05-13T07:32:54;16.40;99.90
17988;DHT22;9119;50.932;5.342;2023-05-13T07:35:20;16.50;99.90
17988;DHT22;9119;50.932;5.342;2023-05-13T07:37:46;16.40;99.90
17988;DHT22;9119;50.932;5.342;2023-05-13T07:40:12;16.60;99.90
17988;DHT22;9119;50.932;5.342;2023-05-13T07:42:38;16.50;99.90
17988;DHT22;9119;50.932;5.342;2023-05-13T07:45:05;16.50;99.90
17988;DHT22;9119;50.932;5.342;2023-05-13T07:47:31;16.50;99.90
17988;DHT22;9119;50.932;5.342;2023-05-13T07:49:58;16.60;99.90
17988;DHT22;9119;50.932;5.342;2023-05-13T07:52:23;16.60;99.90
17988;DHT22;9119;50.932;5.342;2023-05-13T07:54:49;16.60;99.90
17988;DHT22;9119;50.932;5.342;2023-05-13T07:57:15;16.50;99.90
17988;DHT22;9119;50.932;5.342;2023-05-13T07:59:41;16.70;99.90
17988;DHT22;9119;50.932;5.342;2023-05-13T08:02:06;16.90;99.90
17988;DHT22;9119;50.932;5.342;2023-05-13T08:04:33;17.00;99.90
17988;DHT22;9119;50.932;5.342;2023-05-13T08:07:00;16.80;99.90
17988;DHT22;9119;50.932;5.342;2023-05-13T08:09:26;16.80;99.90
17988;DHT22;9119;50.932;5.342;2023-05-13T08:11:52;17.10;99.90
17988;DHT22;9119;50.932;5.342;2023-05-13T08:14:19;17.10;99.90
17988;DHT22;9119;50.932;5.342;2023-05-13T08:16:44;17.30;99.90
17988;DHT22;9119;50.932;5.342;2023-05-13T08:19:12;17.50;99.90
17988;DHT22;9119;50.932;5.342;2023-05-13T08:21:38;17.50;99.90
17988;DHT22;9119;50.932;5.342;2023-05-13T08:24:04;17.40;99.90
17988;DHT22;9119;50.932;5.342;2023-05-13T08:26:30;17.50;99.90
17988;DHT22;9119;50.932;5.342;2023-05-13T08:28:56;17.60;99.90
17988;DHT22;9119;50.932;5.342;2023-05-13T08:31:22;17.80;99.90
17988;DHT22;9119;50.932;5.342;2023-05-13T08:33:49;17.90;99.90
17988;DHT22;9119;50.932;5.342;2023-05-13T08:36:16;18.00;99.90
17988;DHT22;9119;50.932;5.342;2023-05-13T08:38:42;18.10;99.90
17988;DHT22;9119;50.932;5.342;2023-05-13T08:41:13;18.10;99.90
17988;DHT22;9119;50.932;5.342;2023-05-13T08:43:39;18.20;99.90
17988;DHT22;9119;50.932;5.342;2023-05-13T08:46:09;18.40;99.90
17988;DHT22;9119;50.932;5.342;2023-05-13T08:48:37;18.40;99.90
17988;DHT22;9119;50.932;5.342;2023-05-13T08:51:03;18.50;99.90
17988;DHT22;9119;50.932;5.342;2023-05-13T08:53:29;18.90;99.90
17988;DHT22;9119;50.932;5.342;2023-05-13T08:55:56;19.20;99.90
17988;DHT22;9119;50.932;5.342;2023-05-13T08:58:22;19.30;99.90
17988;DHT22;9119;50.932;5.342;2023-05-13T09:00:48;19.50;99.90
17988;DHT22;9119;50.932;5.342;2023-05-13T09:03:14;19.60;99.90
17988;DHT22;9119;50.932;5.342;2023-05-13T09:05:42;19.80;99.90
17988;DHT22;9119;50.932;5.342;2023-05-13T09:08:08;19.80;99.90
17988;DHT22;9119;50.932;5.342;2023-05-13T09:10:35;19.80;99.90
17988;DHT22;9119;50.932;5.342;2023-05-13T09:13:01;20.20;99.90
17988;DHT22;9119;50.932;5.342;2023-05-13T09:15:27;20.70;99.90
17988;DHT22;9119;50.932;5.342;2023-05-13T09:18:02;20.80;99.90
17988;DHT22;9119;50.932;5.342;2023-05-13T09:20:28;21.30;99.90
17988;DHT22;9119;50.932;5.342;2023-05-13T09:23:05;21.30;99.90
17988;DHT22;9119;50.932;5.342;2023-05-13T09:25:31;21.00;99.90
17988;DHT22;9119;50.932;5.342;2023-05-13T09:27:59;21.30;99.90
17988;DHT22;9119;50.932;5.342;2023-05-13T09:30:27;21.60;99.90
17988;DHT22;9119;50.932;5.342;2023-05-13T09:33:28;21.40;99.90
17988;DHT22;9119;50.932;5.342;2023-05-13T09:35:53;21.70;99.90
17988;DHT22;9119;50.932;5.342;2023-05-13T09:38:24;21.90;99.90
17988;DHT22;9119;50.932;5.342;2023-05-13T09:43:20;21.90;99.90
17988;DHT22;9119;50.932;5.342;2023-05-13T09:45:46;21.80;99.90
17988;DHT22;9119;50.932;5.342;2023-05-13T09:48:13;21.50;99.90
17988;DHT22;9119;50.932;5.342;2023-05-13T09:50:48;21.30;99.90
17988;DHT22;9119;50.932;5.342;2023-05-13T09:53:15;21.30;99.90
17988;DHT22;9119;50.932;5.342;2023-05-13T09:55:59;21.60;99.90
17988;DHT22;9119;50.932;5.342;2023-05-13T09:58:27;21.70;99.90
17988;DHT22;9119;50.932;5.342;2023-05-13T10:00:53;21.60;99.90
17988;DHT22;9119;50.932;5.342;2023-05-13T10:03:19;21.90;99.90
17988;DHT22;9119;50.932;5.342;2023-05-13T10:05:47;22.20;99.90
17988;DHT22;9119;50.932;5.342;2023-05-13T10:08:14;22.50;99.90
17988;DHT22;9119;50.932;5.342;2023-05-13T10:10:41;22.50;99.90
17988;DHT22;9119;50.932;5.342;2023-05-13T10:13:13;22.20;99.90
17988;DHT22;9119;50.932;5.342;2023-05-13T10:15:50;21.80;99.90
17988;DHT22;9119;50.932;5.342;2023-05-13T10:18:16;21.70;99.90
17988;DHT22;9119;50.932;5.342;2023-05-13T10:20:43;21.60;99.90
17988;DHT22;9119;50.932;5.342;2023-05-13T10:23:09;21.50;99.90
17988;DHT22;9119;50.932;5.342;2023-05-13T10:25:36;21.60;99.90
17988;DHT22;9119;50.932;5.342;2023-05-13T10:28:03;22.40;99.90
17988;DHT22;9119;50.932;5.342;2023-05-13T10:30:31;22.50;99.90
17988;DHT22;9119;50.932;5.342;2023-05-13T10:32:58;23.00;99.90
17988;DHT22;9119;50.932;5.342;2023-05-13T10:35:28;23.50;99.90
17988;DHT22;9119;50.932;5.342;2023-05-13T10:38:02;23.50;99.90
17988;DHT22;9119;50.932;5.342;2023-05-13T10:43:14;23.90;99.90
17988;DHT22;9119;50.932;5.342;2023-05-13T10:45:49;24.20;99.90
17988;DHT22;9119;50.932;5.342;2023-05-13T10:48:15;24.60;99.90
17988;DHT22;9119;50.932;5.342;2023-05-13T10:50:55;24.80;99.90
17988;DHT22;9119;50.932;5.342;2023-05-13T10:53:26;24.80;99.90
17988;DHT22;9119;50.932;5.342;2023-05-13T10:55:57;24.90;99.90
17988;DHT22;9119;50.932;5.342;2023-05-13T10:58:31;25.00;99.90
17988;DHT22;9119;50.932;5.342;2023-05-13T11:03:50;24.80;99.90
17988;DHT22;9119;50.932;5.342;2023-05-13T11:06:21;24.80;99.90
17988;DHT22;9119;50.932;5.342;2023-05-13T11:08:49;24.80;99.90
17988;DHT22;9119;50.932;5.342;2023-05-13T11:16:17;24.80;99.90
17988;DHT22;9119;50.932;5.342;2023-05-13T11:18:43;24.80;99.90
17988;DHT22;9119;50.932;5.342;2023-05-13T11:21:09;24.70;99.90
17988;DHT22;9119;50.932;5.342;2023-05-13T11:24:00;24.60;99.90
17988;DHT22;9119;50.932;5.342;2023-05-13T11:29:11;25.40;99.90
17988;DHT22;9119;50.932;5.342;2023-05-13T11:31:46;25.40;99.90
17988;DHT22;9119;50.932;5.342;2023-05-13T11:34:16;25.40;99.90
17988;DHT22;9119;50.932;5.342;2023-05-13T11:39:41;25.80;99.90
17988;DHT22;9119;50.932;5.342;2023-05-13T11:42:09;25.90;99.90
17988;DHT22;9119;50.932;5.342;2023-05-13T11:44:35;25.30;99.90
17988;DHT22;9119;50.932;5.342;2023-05-13T11:47:02;25.20;99.90
17988;DHT22;9119;50.932;5.342;2023-05-13T11:49:38;25.30;99.90
17988;DHT22;9119;50.932;5.342;2023-05-13T11:52:16;25.80;99.90
17988;DHT22;9119;50.932;5.342;2023-05-13T11:54:53;26.10;99.90
17988;DHT22;9119;50.932;5.342;2023-05-13T11:57:26;26.10;99.90
17988;DHT22;9119;50.932;5.342;2023-05-13T12:02:24;25.70;99.90
17988;DHT22;9119;50.932;5.342;2023-05-13T12:04:50;26.30;99.90
17988;DHT22;9119;50.932;5.342;2023-05-13T12:07:24;26.00;99.90
17988;DHT22;9119;50.932;5.342;2023-05-13T12:09:51;26.20;99.90
17988;DHT22;9119;50.932;5.342;2023-05-13T12:12:18;26.40;99.90
17988;DHT22;9119;50.932;5.342;2023-05-13T12:14:48;26.70;99.90
17988;DHT22;9119;50.932;5.342;2023-05-13T12:17:15;26.90;99.90
17988;DHT22;9119;50.932;5.342;2023-05-13T12:20:04;26.70;99.90
17988;DHT22;9119;50.932;5.342;2023-05-13T12:22:30;26.20;99.90
17988;DHT22;9119;50.932;5.342;2023-05-13T12:24:56;26.30;99.90
17988;DHT22;9119;50.932;5.342;2023-05-13T12:27:27;26.60;99.90
17988;DHT22;9119;50.932;5.342;2023-05-13T12:29:54;25.80;99.90
17988;DHT22;9119;50.932;5.342;2023-05-13T12:32:20;24.50;99.90
17988;DHT22;9119;50.932;5.342;2023-05-13T12:34:49;23.70;99.90
17988;DHT22;9119;50.932;5.342;2023-05-13T12:37:16;23.40;99.90
17988;DHT22;9119;50.932;5.342;2023-05-13T12:39:42;23.60;99.90
17988;DHT22;9119;50.932;5.342;2023-05-13T12:42:17;24.80;99.90
17988;DHT22;9119;50.932;5.342;2023-05-13T12:44:44;24.70;99.90
17988;DHT22;9119;50.932;5.342;2023-05-13T12:47:10;23.80;99.90
17988;DHT22;9119;50.932;5.342;2023-05-13T12:49:53;23.50;99.90
17988;DHT22;9119;50.932;5.342;2023-05-13T12:52:20;23.50;99.90
17988;DHT22;9119;50.932;5.342;2023-05-13T12:54:46;24.30;99.90
17988;DHT22;9119;50.932;5.342;2023-05-13T12:57:15;24.70;99.90
17988;DHT22;9119;50.932;5.342;2023-05-13T12:59:41;24.10;99.90
17988;DHT22;9119;50.932;5.342;2023-05-13T13:02:08;24.40;99.90
17988;DHT22;9119;50.932;5.342;2023-05-13T13:04:33;25.20;99.90
17988;DHT22;9119;50.932;5.342;2023-05-13T13:06:59;26.10;99.90
17988;DHT22;9119;50.932;5.342;2023-05-13T13:09:25;26.20;99.90
17988;DHT22;9119;50.932;5.342;2023-05-13T13:11:51;26.20;99.90
17988;DHT22;9119;50.932;5.342;2023-05-13T13:14:17;26.60;99.90
17988;DHT22;9119;50.932;5.342;2023-05-13T13:16:42;27.40;99.90
17988;DHT22;9119;50.932;5.342;2023-05-13T13:19:08;27.00;99.90
17988;DHT22;9119;50.932;5.342;2023-05-13T13:21:34;26.90;99.90
17988;DHT22;9119;50.932;5.342;2023-05-13T13:24:00;27.40;99.90
17988;DHT22;9119;50.932;5.342;2023-05-13T13:26:26;27.80;99.90
17988;DHT22;9119;50.932;5.342;2023-05-13T13:28:51;27.40;99.90
17988;DHT22;9119;50.932;5.342;2023-05-13T13:31:17;27.10;99.90
17988;DHT22;9119;50.932;5.342;2023-05-13T13:33:43;27.50;99.90
17988;DHT22;9119;50.932;5.342;2023-05-13T13:36:09;27.60;99.90
17988;DHT22;9119;50.932;5.342;2023-05-13T13:38:34;27.30;99.90
17988;DHT22;9119;50.932;5.342;2023-05-13T13:41:00;26.60;99.90
17988;DHT22;9119;50.932;5.342;2023-05-13T13:43:26;27.00;99.90
17988;DHT22;9119;50.932;5.342;2023-05-13T13:45:52;27.40;99.90
17988;DHT22;9119;50.932;5.342;2023-05-13T13:48:17;26.90;99.90
17988;DHT22;9119;50.932;5.342;2023-05-13T13:50:43;27.70;99.90
17988;DHT22;9119;50.932;5.342;2023-05-13T13:53:09;27.50;99.90
17988;DHT22;9119;50.932;5.342;2023-05-13T13:55:35;26.60;99.90
17988;DHT22;9119;50.932;5.342;2023-05-13T13:58:01;26.50;99.90
17988;DHT22;9119;50.932;5.342;2023-05-13T14:00:26;26.70;99.90
17988;DHT22;9119;50.932;5.342;2023-05-13T14:02:52;26.60;99.90
17988;DHT22;9119;50.932;5.342;2023-05-13T14:05:18;26.80;99.90
17988;DHT22;9119;50.932;5.342;2023-05-13T14:07:44;27.10;99.90
17988;DHT22;9119;50.932;5.342;2023-05-13T14:10:10;26.90;99.90
17988;DHT22;9119;50.932;5.342;2023-05-13T14:12:37;25.70;99.90
17988;DHT22;9119;50.932;5.342;2023-05-13T14:15:03;25.00;99.90
17988;DHT22;9119;50.932;5.342;2023-05-13T14:17:28;25.60;99.90
17988;DHT22;9119;50.932;5.342;2023-05-13T14:19:54;25.80;99.90
17988;DHT22;9119;50.932;5.342;2023-05-13T14:22:21;25.90;99.90
17988;DHT22;9119;50.932;5.342;2023-05-13T14:24:49;26.40;99.90
17988;DHT22;9119;50.932;5.342;2023-05-13T14:27:14;25.50;99.90
17988;DHT22;9119;50.932;5.342;2023-05-13T14:29:40;25.10;99.90
17988;DHT22;9119;50.932;5.342;2023-05-13T14:32:06;25.20;99.90
17988;DHT22;9119;50.932;5.342;2023-05-13T14:34:33;24.90;99.90
17988;DHT22;9119;50.932;5.342;2023-05-13T14:36:59;24.40;99.90
17988;DHT22;9119;50.932;5.342;2023-05-13T14:39:24;24.10;99.90
17988;DHT22;9119;50.932;5.342;2023-05-13T14:41:50;23.70;99.90
17988;DHT22;9119;50.932;5.342;2023-05-13T14:44:16;23.60;99.90
17988;DHT22;9119;50.932;5.342;2023-05-13T14:46:41;23.90;99.90
17988;DHT22;9119;50.932;5.342;2023-05-13T14:49:07;24.90;99.90
17988;DHT22;9119;50.932;5.342;2023-05-13T14:51:33;25.90;99.90
17988;DHT22;9119;50.932;5.342;2023-05-13T14:53:59;26.80;99.90
17988;DHT22;9119;50.932;5.342;2023-05-13T14:56:25;27.50;99.90
17988;DHT22;9119;50.932;5.342;2023-05-13T14:58:52;27.50;99.90
17988;DHT22;9119;50.932;5.342;2023-05-13T15:01:18;26.20;99.90
17988;DHT22;9119;50.932;5.342;2023-05-13T15:03:43;24.80;99.90
17988;DHT22;9119;50.932;5.342;2023-05-13T15:06:09;23.60;99.90
17988;DHT22;9119;50.932;5.342;2023-05-13T15:08:36;22.80;99.90
17988;DHT22;9119;50.932;5.342;2023-05-13T15:11:02;22.50;99.90
17988;DHT22;9119;50.932;5.342;2023-05-13T15:13:28;22.40;99.90
17988;DHT22;9119;50.932;5.342;2023-05-13T15:16:00;22.30;99.90
17988;DHT22;9119;50.932;5.342;2023-05-13T15:18:26;22.40;99.90
17988;DHT22;9119;50.932;5.342;2023-05-13T15:20:52;22.10;99.90
17988;DHT22;9119;50.932;5.342;2023-05-13T15:23:18;21.90;99.90
17988;DHT22;9119;50.932;5.342;2023-05-13T15:25:44;21.80;99.90
17988;DHT22;9119;50.932;5.342;2023-05-13T15:28:10;21.50;99.90
17988;DHT22;9119;50.932;5.342;2023-05-13T15:30:35;21.30;99.90
17988;DHT22;9119;50.932;5.342;2023-05-13T15:33:05;21.20;99.90
17988;DHT22;9119;50.932;5.342;2023-05-13T15:35:31;21.20;99.90
17988;DHT22;9119;50.932;5.342;2023-05-13T15:37:57;21.40;99.90
17988;DHT22;9119;50.932;5.342;2023-05-13T15:40:23;21.40;99.90
17988;DHT22;9119;50.932;5.342;2023-05-13T15:42:49;21.10;99.90
17988;DHT22;9119;50.932;5.342;2023-05-13T15:45:14;21.10;99.90
17988;DHT22;9119;50.932;5.342;2023-05-13T15:47:40;21.20;99.90
17988;DHT22;9119;50.932;5.342;2023-05-13T15:50:06;21.30;99.90
17988;DHT22;9119;50.932;5.342;2023-05-13T15:52:32;21.40;99.90
17988;DHT22;9119;50.932;5.342;2023-05-13T15:54:58;21.40;99.90
17988;DHT22;9119;50.932;5.342;2023-05-13T15:57:23;21.20;99.90
17988;DHT22;9119;50.932;5.342;2023-05-13T15:59:49;20.90;99.90
17988;DHT22;9119;50.932;5.342;2023-05-13T16:02:15;20.50;99.90
17988;DHT22;9119;50.932;5.342;2023-05-13T16:04:43;20.10;99.90
17988;DHT22;9119;50.932;5.342;2023-05-13T16:07:10;19.60;99.90
17988;DHT22;9119;50.932;5.342;2023-05-13T16:09:39;19.40;99.90
17988;DHT22;9119;50.932;5.342;2023-05-13T16:12:05;19.40;99.90